Ansbach, Germany

7:13 PM CET on January 28, 2015 (GMT +0100)
Ansbach Ahp | Change Station
CLOSE
Current Station
Airport
Location: Ansbach,
Elevation: 1532 ft
Nearby Weather Stations

Elev 1532 ft 49.32 °N, 10.63 °E | Updated 15 minutes ago

Overcast
Overcast
34 °F
Feels Like 25 °F
N
14
Wind Variable Wind from SSW
Gusts 22 mph

Today
High -- | Low -- °F
--% Chance of Precip.
Yesterday
High -- | Low -- °F
Precip. -- in
7:54 AM 5:06 PM
Waxing Gibbous, 66% visible
Pressure 29.75 in
Visibility 6.2 miles
Clouds Overcast 2600 ft
Windchill 25 °F
Dew Point 32 °F
Humidity 94%
Rainfall 0.00 in
Snow Depth Not available.
UV 0 out of 12
Pollen Not available.
Air Quality Not available.
Flu Activity Not available.
METAR ETEB 281758Z AUTO 20012G19KT 9999 OVC026 01/00 A2965 RMK AO2 PRESFR SLP075 T00120003 10022 20011 57046

More Conditions Fewer Conditions

Pressure 29.75 in
Visibility 6.2 miles
Clouds Overcast 2600 ft
Windchill 25 °F
Dew Point 32 °F
Humidity 94%
Rainfall 0.00 in
Snow Depth Not available.
UV 0 out of 12
Pollen Not available.
Air Quality Not available.
Flu Activity Not available.
METAR ETEB 281758Z AUTO 20012G19KT 9999 OVC026 01/00 A2965 RMK AO2 PRESFR SLP075 T00120003 10022 20011 57046

More Conditions Fewer Conditions

10-Day Weather Forecast

Almanac

Astronomy

Jan. 28, 2015 Rise Set
Actual Time
Civil Twilight
Nautical Twilight
Astronomical Twilight
Moon
Length of Visible Light
Length of Day
Tomorrow will be .
, % of the Moon is Illuminated

Today's Extremes

Country Highs Country Lows

Community

WunderPhotos

Upload Photos

1,791,237 photos uploaded!

WunderBlogs® & News

Nearby

Air Quality

  Air Quality AQ Index Pollutant
Not available.

Snow Depth

Station Depth Elevation

Earthquake Activity

City Distance Mag. Time & Date
Minimum magnitude displayed is 2.5.

Coastal Water Temperatures

Place Temperature

Nearby Weather Stations